createdAt,value
2018-09-12T00:00:20.480Z,4.13
2018-09-12T00:02:48.755Z,4.00
2018-09-12T00:05:17.047Z,4.23
2018-09-12T00:07:46.057Z,4.23
2018-09-12T00:10:14.311Z,4.00
2018-09-12T00:12:42.575Z,4.17
2018-09-12T00:15:10.851Z,3.90
2018-09-12T00:17:39.095Z,3.40
2018-09-12T00:20:07.438Z,4.93
2018-09-12T00:22:35.704Z,3.70
2018-09-12T00:25:04.004Z,3.63
2018-09-12T00:27:32.245Z,3.77
2018-09-12T00:30:00.507Z,3.40
2018-09-12T00:32:28.781Z,3.70
2018-09-12T00:34:57.038Z,3.73
2018-09-12T00:37:25.310Z,3.83
2018-09-12T00:39:53.572Z,3.80
2018-09-12T00:42:23.064Z,3.63
2018-09-12T00:44:51.317Z,3.83
2018-09-12T00:47:19.590Z,3.80
2018-09-12T00:49:47.844Z,3.70
2018-09-12T00:52:16.109Z,4.07
2018-09-12T00:54:44.445Z,3.63
2018-09-12T00:57:12.818Z,4.23
2018-09-12T00:59:41.106Z,3.90
2018-09-12T01:02:09.376Z,3.57
2018-09-12T01:04:37.624Z,4.50
2018-09-12T01:07:06.008Z,4.13
2018-09-12T01:09:34.291Z,4.10
2018-09-12T01:12:02.572Z,4.07
2018-09-12T01:14:32.801Z,4.27
2018-09-12T01:17:01.074Z,4.10
2018-09-12T01:19:30.004Z,3.80
2018-09-12T01:21:58.276Z,4.00
2018-09-12T01:24:26.520Z,4.03
2018-09-12T01:26:54.779Z,3.77
2018-09-12T01:29:23.576Z,4.73
2018-09-12T01:31:51.962Z,3.93
2018-09-12T01:34:20.252Z,4.17
2018-09-12T01:36:48.545Z,4.17
2018-09-12T01:39:16.797Z,4.70
2018-09-12T01:41:45.105Z,3.70
2018-09-12T01:44:13.397Z,3.90
2018-09-12T01:46:41.742Z,3.73
2018-09-12T01:49:14.257Z,3.80
2018-09-12T01:51:42.553Z,5.27
2018-09-12T01:54:10.828Z,3.93
2018-09-12T01:56:39.098Z,5.10
2018-09-12T01:59:07.372Z,3.80
2018-09-12T02:01:35.790Z,3.97
2018-09-12T02:04:04.052Z,3.80
2018-09-12T02:06:32.320Z,4.00
2018-09-12T02:09:00.604Z,3.67
2018-09-12T02:11:28.860Z,4.00
2018-09-12T02:13:57.118Z,4.73
2018-09-12T02:16:25.368Z,4.37
2018-09-12T02:18:53.616Z,4.47
2018-09-12T02:21:21.880Z,4.17
2018-09-12T02:23:50.141Z,4.37
2018-09-12T02:26:18.460Z,4.23
2018-09-12T02:28:46.717Z,4.40
2018-09-12T02:31:14.998Z,4.30
2018-09-12T02:33:43.296Z,4.10
2018-09-12T02:36:17.017Z,4.00
2018-09-12T02:38:45.276Z,4.57
2018-09-12T02:41:13.536Z,4.03
2018-09-12T02:43:41.800Z,4.07
2018-09-12T02:46:10.078Z,4.23
2018-09-12T02:48:38.326Z,3.90
2018-09-12T02:51:06.589Z,3.87
2018-09-12T02:53:34.845Z,3.80
2018-09-12T02:56:03.109Z,4.10
2018-09-12T02:58:31.361Z,3.77
2018-09-12T03:00:59.629Z,4.10
2018-09-12T03:03:27.923Z,4.83
2018-09-12T03:05:56.208Z,4.27
2018-09-12T03:08:24.487Z,4.10
2018-09-12T03:10:52.761Z,4.27
2018-09-12T03:13:21.015Z,4.00
2018-09-12T03:15:49.293Z,3.80
2018-09-12T03:18:17.590Z,4.30
2018-09-12T03:20:46.042Z,4.00
2018-09-12T03:23:14.197Z,3.90
2018-09-12T03:25:42.469Z,4.23
2018-09-12T03:28:10.715Z,3.50
2018-09-12T03:30:38.969Z,4.17
2018-09-12T03:33:07.235Z,4.30
2018-09-12T03:35:35.533Z,3.53
2018-09-12T03:38:03.839Z,4.03
2018-09-12T03:40:32.101Z,3.93
2018-09-12T03:43:00.365Z,3.57
2018-09-12T03:45:28.624Z,4.33
2018-09-12T03:47:56.962Z,4.13
2018-09-12T03:50:25.167Z,4.43
2018-09-12T03:52:53.524Z,4.43
2018-09-12T03:55:21.808Z,4.93
2018-09-12T03:57:50.074Z,5.10
2018-09-12T04:00:18.337Z,4.30
2018-09-12T04:02:46.641Z,5.20
2018-09-12T04:05:14.895Z,5.20
2018-09-12T04:07:43.157Z,4.80
2018-09-12T04:10:11.522Z,5.03
2018-09-12T04:12:39.779Z,5.73
2018-09-12T04:15:08.055Z,5.10
2018-09-12T04:17:37.287Z,5.80
2018-09-12T04:20:05.640Z,5.53
2018-09-12T04:22:34.030Z,5.27
2018-09-12T04:25:02.325Z,5.97
2018-09-12T04:27:30.597Z,5.70
2018-09-12T04:29:58.878Z,6.13
2018-09-12T04:32:27.154Z,5.57
2018-09-12T04:34:55.480Z,7.23
2018-09-12T04:37:23.797Z,5.70
2018-09-12T04:39:52.052Z,6.10
2018-09-12T04:42:20.311Z,6.23
2018-09-12T04:44:48.840Z,5.40
2018-09-12T04:47:17.116Z,5.33
2018-09-12T04:49:45.388Z,6.00
2018-09-12T04:52:13.647Z,5.23
2018-09-12T04:54:41.919Z,5.50
2018-09-12T04:57:10.189Z,5.37
2018-09-12T04:59:38.545Z,5.97
2018-09-12T05:02:06.752Z,5.83
2018-09-12T05:04:35.012Z,5.20
2018-09-12T05:07:03.299Z,5.23
2018-09-12T05:09:31.548Z,5.20
2018-09-12T05:11:59.804Z,5.90
2018-09-12T05:14:28.056Z,5.50
2018-09-12T05:16:56.329Z,5.80
2018-09-12T05:19:25.737Z,5.90
2018-09-12T05:21:54.002Z,6.13
2018-09-12T05:24:22.275Z,6.17
2018-09-12T05:26:50.543Z,5.67
2018-09-12T05:29:18.808Z,6.50
2018-09-12T05:31:47.180Z,6.87
2018-09-12T05:34:15.550Z,6.83
2018-09-12T05:36:43.834Z,7.30
2018-09-12T05:39:12.131Z,9.00
2018-09-12T05:41:40.448Z,7.33
2018-09-12T05:44:08.710Z,9.80
2018-09-12T05:46:37.493Z,9.03
2018-09-12T05:49:05.816Z,8.07
2018-09-12T05:51:34.078Z,8.80
2018-09-12T05:54:02.542Z,9.13
2018-09-12T05:56:30.821Z,8.90
2018-09-12T05:58:59.114Z,9.37
2018-09-12T06:01:27.417Z,9.33
2018-09-12T06:03:55.704Z,8.53
2018-09-12T06:06:24.034Z,9.40
2018-09-12T06:08:52.222Z,9.37
2018-09-12T06:11:20.504Z,8.80
2018-09-12T06:13:48.791Z,9.27
2018-09-12T06:16:17.054Z,9.10
2018-09-12T06:18:45.888Z,9.83
2018-09-12T06:21:14.163Z,9.80
2018-09-12T06:23:42.420Z,9.43
2018-09-12T06:26:10.674Z,9.73
2018-09-12T06:28:38.958Z,8.77
2018-09-12T06:31:07.240Z,8.53
2018-09-12T06:33:35.505Z,8.53
2018-09-12T06:36:03.768Z,8.43
2018-09-12T06:38:32.970Z,8.83
2018-09-12T06:41:01.232Z,9.00
2018-09-12T06:43:29.468Z,8.43
2018-09-12T06:45:57.778Z,8.03
2018-09-12T06:48:26.062Z,9.50
2018-09-12T06:50:54.342Z,7.60
2018-09-12T06:53:22.641Z,8.23
2018-09-12T06:55:50.904Z,7.73
2018-09-12T06:58:19.184Z,7.97
2018-09-12T07:00:47.522Z,10.57
2018-09-12T07:03:15.760Z,8.10
2018-09-12T07:05:44.036Z,7.87
2018-09-12T07:08:12.292Z,7.43
2018-09-12T07:10:40.564Z,7.63
2018-09-12T07:13:08.839Z,6.70
2018-09-12T07:15:37.119Z,7.20
2018-09-12T07:18:05.407Z,7.67
2018-09-12T07:20:33.697Z,7.57
2018-09-12T07:23:01.960Z,8.20
2018-09-12T07:25:30.252Z,6.73
2018-09-12T07:27:58.540Z,6.67
2018-09-12T07:30:26.849Z,7.53
2018-09-12T07:32:55.166Z,7.20
2018-09-12T07:35:23.436Z,6.67
2018-09-12T07:37:51.721Z,7.13
2018-09-12T07:40:20.226Z,7.17
2018-09-12T07:42:48.831Z,7.07
2018-09-12T07:45:17.104Z,5.87
2018-09-12T07:47:46.244Z,5.53
2018-09-12T07:50:14.521Z,6.30
2018-09-12T07:52:42.799Z,6.07
2018-09-12T07:55:11.078Z,5.83
2018-09-12T07:57:39.321Z,6.00
2018-09-12T08:00:07.705Z,6.00
2018-09-12T08:02:35.944Z,5.20
2018-09-12T08:05:04.388Z,5.53
2018-09-12T08:07:33.084Z,5.50
2018-09-12T08:10:01.341Z,5.17
2018-09-12T08:12:29.686Z,5.17
2018-09-12T08:14:57.969Z,6.13
2018-09-12T08:17:26.241Z,4.90
2018-09-12T08:19:54.529Z,4.90
2018-09-12T08:22:22.809Z,4.83
2018-09-12T08:24:51.086Z,4.77
2018-09-12T08:27:19.347Z,5.00
2018-09-12T08:29:47.693Z,5.43
2018-09-12T08:32:15.985Z,5.17
2018-09-12T08:34:45.324Z,4.60
2018-09-12T08:37:13.585Z,4.67
2018-09-12T08:39:41.943Z,5.30
2018-09-12T08:42:10.286Z,5.43
2018-09-12T08:44:38.553Z,5.10
2018-09-12T08:47:06.816Z,4.80
2018-09-12T08:49:35.068Z,4.90
2018-09-12T08:52:03.349Z,5.10
2018-09-12T08:54:31.693Z,4.80
2018-09-12T08:56:59.972Z,5.37
2018-09-12T08:59:28.237Z,4.90
2018-09-12T09:01:56.603Z,7.00
2018-09-12T09:04:24.907Z,4.87
2018-09-12T09:06:53.192Z,6.50
2018-09-12T09:09:21.505Z,4.43
2018-09-12T09:11:49.785Z,5.50
2018-09-12T09:14:18.085Z,5.10
2018-09-12T09:16:46.365Z,5.00
2018-09-12T09:19:14.707Z,5.27
2018-09-12T09:21:42.987Z,4.80
2018-09-12T09:24:11.265Z,4.30
2018-09-12T09:26:39.553Z,4.83
2018-09-12T09:29:07.811Z,5.07
2018-09-12T09:31:36.091Z,4.43
2018-09-12T09:34:04.388Z,4.77
2018-09-12T09:36:32.758Z,4.50
2018-09-12T09:39:01.062Z,4.20
2018-09-12T09:41:29.951Z,6.77
2018-09-12T09:43:58.250Z,4.70
2018-09-12T09:46:26.527Z,4.83
2018-09-12T09:48:54.815Z,4.70
2018-09-12T09:51:23.083Z,5.20
2018-09-12T09:53:51.387Z,5.63
2018-09-12T09:56:19.676Z,4.70
2018-09-12T09:58:47.969Z,5.80
2018-09-12T10:01:21.618Z,4.43
2018-09-12T10:03:55.279Z,6.43
2018-09-12T10:06:27.932Z,4.93
2018-09-12T10:08:57.673Z,5.37
2018-09-12T10:11:25.997Z,3.83
2018-09-12T10:13:54.987Z,4.50
2018-09-12T10:16:23.260Z,5.20
2018-09-12T10:18:51.520Z,4.00
2018-09-12T10:21:19.774Z,5.40
2018-09-12T10:23:48.082Z,4.40
2018-09-12T10:26:16.447Z,4.07
2018-09-12T10:28:44.724Z,8.10
2018-09-12T10:31:12.987Z,4.90
2018-09-12T10:33:41.257Z,4.50
2018-09-12T10:36:09.549Z,4.07
2018-09-12T10:38:38.365Z,6.60
2018-09-12T10:41:06.736Z,4.10
2018-09-12T10:43:34.911Z,4.33
2018-09-12T10:46:03.197Z,3.83
2018-09-12T10:48:31.555Z,4.27
2018-09-12T10:50:59.848Z,4.23
2018-09-12T10:53:28.232Z,4.23
2018-09-12T10:55:56.519Z,4.30
2018-09-12T10:58:24.777Z,4.53
2018-09-12T11:00:54.078Z,3.97
2018-09-12T11:03:22.449Z,3.83
2018-09-12T11:05:50.751Z,3.83
2018-09-12T11:08:19.033Z,6.20
2018-09-12T11:10:47.619Z,3.70
2018-09-12T11:13:15.918Z,6.07
2018-09-12T11:15:44.815Z,4.00
2018-09-12T11:18:13.985Z,4.20
2018-09-12T11:20:42.268Z,5.30
2018-09-12T11:23:10.549Z,3.70
2018-09-12T11:25:38.813Z,3.70
2018-09-12T11:28:07.106Z,3.50
2018-09-12T11:30:35.371Z,3.83
2018-09-12T11:33:04.214Z,3.60
2018-09-12T11:35:32.475Z,3.50
2018-09-12T11:38:01.357Z,4.20
2018-09-12T11:40:29.625Z,3.63
2018-09-12T11:42:57.978Z,3.70
2018-09-12T11:45:27.128Z,3.50
2018-09-12T11:47:55.427Z,3.80
2018-09-12T11:50:23.721Z,3.17
2018-09-12T11:52:51.981Z,3.30
2018-09-12T11:55:20.967Z,5.40
2018-09-12T11:57:49.256Z,3.03
2018-09-12T12:00:17.581Z,3.43
2018-09-12T12:02:45.856Z,3.47
2018-09-12T12:05:14.143Z,4.10
2018-09-12T12:07:42.427Z,2.97
2018-09-12T12:10:10.712Z,3.00
2018-09-12T12:12:38.996Z,3.30
2018-09-12T12:15:07.294Z,2.97
2018-09-12T12:17:35.564Z,2.90
2018-09-12T12:20:03.852Z,4.50
2018-09-12T12:22:32.136Z,3.87
2018-09-12T12:25:00.516Z,3.30
2018-09-12T12:27:28.887Z,3.63
2018-09-12T12:29:57.180Z,3.23
2018-09-12T12:32:25.428Z,3.30
2018-09-12T12:34:53.709Z,3.10
2018-09-12T12:37:21.990Z,3.00
2018-09-12T12:39:50.310Z,3.17
2018-09-12T12:42:18.578Z,3.40
2018-09-12T12:44:47.381Z,2.87
2018-09-12T12:47:15.646Z,4.10
2018-09-12T12:49:43.964Z,4.90
2018-09-12T12:52:12.304Z,3.30
2018-09-12T12:54:41.013Z,7.90
2018-09-12T12:57:09.304Z,3.80
2018-09-12T12:59:37.569Z,4.93
2018-09-12T13:02:05.867Z,3.53
2018-09-12T13:04:34.184Z,2.67
2018-09-12T13:07:02.467Z,3.83
2018-09-12T13:09:30.765Z,4.90
2018-09-12T13:11:59.045Z,3.10
2018-09-12T13:14:27.368Z,4.67
2018-09-12T13:16:55.618Z,2.93
2018-09-12T13:19:23.920Z,3.00
2018-09-12T13:21:52.515Z,7.63
2018-09-12T13:24:20.753Z,3.00
2018-09-12T13:26:49.032Z,3.90
2018-09-12T13:29:17.370Z,3.03
2018-09-12T13:31:47.247Z,3.07
2018-09-12T13:34:15.596Z,2.70
2018-09-12T13:36:44.376Z,8.03
2018-09-12T13:39:15.488Z,3.90
2018-09-12T13:41:43.800Z,2.77
2018-09-12T13:44:12.111Z,4.10
2018-09-12T13:46:40.389Z,2.70
2018-09-12T13:49:08.645Z,2.80
2018-09-12T13:51:37.606Z,3.67
2018-09-12T13:54:05.888Z,3.00
2018-09-12T13:56:35.729Z,3.87
2018-09-12T13:59:03.977Z,2.77
2018-09-12T14:01:32.352Z,3.30
2018-09-12T14:04:00.637Z,3.40
2018-09-12T14:06:29.455Z,2.80
2018-09-12T14:08:57.806Z,3.20
2018-09-12T14:11:26.040Z,2.80
2018-09-12T14:13:54.747Z,2.97
2018-09-12T14:16:23.049Z,3.23
2018-09-12T14:18:51.326Z,3.23
2018-09-12T14:21:19.606Z,3.43
2018-09-12T14:23:47.888Z,3.83
2018-09-12T14:26:16.167Z,3.03
2018-09-12T14:28:44.484Z,3.33
2018-09-12T14:31:12.877Z,3.60
2018-09-12T14:33:42.154Z,3.17
2018-09-12T14:36:10.445Z,4.03
2018-09-12T14:38:38.758Z,3.03
2018-09-12T14:41:07.144Z,2.80
2018-09-12T14:43:35.442Z,3.07
2018-09-12T14:46:03.726Z,4.07
2018-09-12T14:48:32.025Z,2.90
2018-09-12T14:51:00.300Z,5.67
2018-09-12T14:53:28.589Z,2.87
2018-09-12T14:55:56.846Z,3.13
2018-09-12T14:58:25.136Z,4.90
2018-09-12T15:00:54.396Z,3.10
2018-09-12T15:03:23.083Z,2.83
2018-09-12T15:05:51.382Z,3.00
2018-09-12T15:08:19.703Z,5.03
2018-09-12T15:10:48.039Z,3.07
2018-09-12T15:13:16.310Z,2.87
2018-09-12T15:15:44.582Z,2.70
2018-09-12T15:18:12.863Z,2.73
2018-09-12T15:20:41.717Z,2.73
2018-09-12T15:23:09.982Z,3.63
2018-09-12T15:25:38.257Z,2.70
2018-09-12T15:28:06.548Z,4.00
2018-09-12T15:30:35.382Z,4.30
2018-09-12T15:33:03.817Z,2.70
2018-09-12T15:35:32.107Z,2.80
2018-09-12T15:38:00.468Z,2.50
2018-09-12T15:40:28.764Z,3.00
2018-09-12T15:42:57.067Z,3.93
2018-09-12T15:45:25.461Z,2.60
2018-09-12T15:47:54.123Z,3.10
2018-09-12T15:50:24.360Z,2.60
2018-09-12T15:52:53.152Z,2.80
2018-09-12T15:55:21.521Z,2.73
2018-09-12T15:57:50.612Z,2.97
2018-09-12T16:00:18.894Z,2.53
2018-09-12T16:02:47.206Z,2.63
2018-09-12T16:05:15.516Z,2.83
2018-09-12T16:07:44.117Z,2.73
2018-09-12T16:10:12.413Z,3.43
2018-09-12T16:12:40.685Z,2.70
2018-09-12T16:15:09.012Z,2.60
2018-09-12T16:17:37.301Z,2.67
2018-09-12T16:20:05.634Z,2.87
2018-09-12T16:22:33.972Z,3.10
2018-09-12T16:25:02.229Z,3.43
2018-09-12T16:27:30.516Z,3.47
2018-09-12T16:29:58.803Z,3.87
2018-09-12T16:32:27.124Z,4.37
2018-09-12T16:34:55.393Z,3.30
2018-09-12T16:37:23.691Z,3.57
2018-09-12T16:39:52.482Z,3.43
2018-09-12T16:42:20.768Z,3.57
2018-09-12T16:44:49.046Z,5.13
2018-09-12T16:47:17.778Z,4.53
2018-09-12T16:49:46.095Z,3.17
2018-09-12T16:52:14.381Z,4.37
2018-09-12T16:54:42.671Z,3.33
2018-09-12T16:57:10.984Z,5.53
2018-09-12T16:59:39.304Z,8.33
2018-09-12T17:02:07.592Z,3.47
2018-09-12T17:04:35.903Z,11.53
2018-09-12T17:07:04.296Z,6.50
2018-09-12T17:09:33.221Z,6.93
2018-09-12T17:12:01.534Z,4.33
2018-09-12T17:14:29.909Z,3.30
2018-09-12T17:16:58.224Z,3.77
2018-09-12T17:19:26.628Z,4.40
2018-09-12T17:21:54.979Z,3.10
2018-09-12T17:24:23.276Z,3.00
2018-09-12T17:26:51.600Z,3.50
2018-09-12T17:29:19.934Z,3.13
2018-09-12T17:31:48.238Z,3.60
2018-09-12T17:34:16.573Z,2.70
2018-09-12T17:36:44.836Z,2.60
2018-09-12T17:39:13.120Z,4.23
2018-09-12T17:41:41.485Z,3.57
2018-09-12T17:44:09.870Z,3.27
2018-09-12T17:46:38.176Z,3.20
2018-09-12T17:49:06.634Z,3.00
2018-09-12T17:51:34.957Z,2.90
2018-09-12T17:54:03.249Z,2.97
2018-09-12T17:56:31.574Z,3.87
2018-09-12T17:59:01.115Z,3.13
2018-09-12T18:01:29.401Z,2.73
2018-09-12T18:03:58.637Z,2.93
2018-09-12T18:06:26.937Z,2.63
2018-09-12T18:08:55.369Z,2.57
2018-09-12T18:11:23.868Z,2.80
2018-09-12T18:13:52.234Z,2.87
2018-09-12T18:16:20.628Z,3.20
2018-09-12T18:18:49.061Z,2.90
2018-09-12T18:21:17.583Z,2.93
2018-09-12T18:23:45.912Z,2.97
2018-09-12T18:26:14.230Z,2.60
2018-09-12T18:28:42.601Z,2.83
2018-09-12T18:31:11.032Z,4.17
2018-09-12T18:33:39.366Z,3.03
2018-09-12T18:36:08.064Z,2.80
2018-09-12T18:38:36.608Z,2.53
2018-09-12T18:41:04.973Z,2.77
2018-09-12T18:43:34.090Z,2.67
2018-09-12T18:46:02.463Z,2.90
2018-09-12T18:48:31.081Z,4.70
2018-09-12T18:51:04.447Z,3.50
2018-09-12T18:53:33.922Z,2.63
2018-09-12T18:56:02.350Z,2.47
2018-09-12T18:58:30.734Z,2.50
2018-09-12T19:00:59.129Z,2.60
2018-09-12T19:03:27.488Z,2.50
2018-09-12T19:05:55.980Z,2.70
2018-09-12T19:08:24.369Z,2.63
2018-09-12T19:10:52.742Z,2.50
2018-09-12T19:13:21.166Z,2.30
2018-09-12T19:15:49.538Z,2.60
2018-09-12T19:18:18.415Z,2.57
2018-09-12T19:20:47.621Z,2.47
2018-09-12T19:23:16.644Z,2.67
2018-09-12T19:25:45.031Z,2.43
2018-09-12T19:28:13.411Z,2.30
2018-09-12T19:30:41.778Z,2.90
2018-09-12T19:33:10.165Z,2.60
2018-09-12T19:35:38.524Z,2.60
2018-09-12T19:38:06.917Z,2.20
2018-09-12T19:40:35.298Z,2.70
2018-09-12T19:43:03.660Z,2.50
2018-09-12T19:45:31.999Z,2.50
2018-09-12T19:48:00.501Z,2.83
2018-09-12T19:50:28.826Z,2.70
2018-09-12T19:52:57.203Z,2.00
2018-09-12T19:55:25.579Z,2.00
2018-09-12T19:57:54.064Z,2.47
2018-09-12T20:00:22.611Z,2.23
2018-09-12T20:02:50.935Z,2.20
2018-09-12T20:05:19.419Z,2.50
2018-09-12T20:07:47.777Z,2.70
2018-09-12T20:10:16.107Z,2.30
2018-09-12T20:12:44.468Z,4.10
2018-09-12T20:15:12.884Z,2.50
2018-09-12T20:17:41.305Z,2.50
2018-09-12T20:20:09.731Z,2.50
2018-09-12T20:22:38.122Z,1.93
2018-09-12T20:25:06.504Z,2.27
2018-09-12T20:27:34.826Z,2.10
2018-09-12T20:30:04.159Z,1.90
2018-09-12T20:32:32.544Z,2.00
2018-09-12T20:35:01.582Z,2.20
2018-09-12T20:37:29.888Z,2.50
2018-09-12T20:39:58.222Z,2.00
2018-09-12T20:42:26.932Z,2.30
2018-09-12T20:44:55.282Z,2.50
2018-09-12T20:47:23.571Z,2.10
2018-09-12T20:49:51.927Z,2.70
2018-09-12T20:52:20.202Z,2.07
2018-09-12T20:54:48.515Z,2.27
2018-09-12T20:57:16.813Z,2.33
2018-09-12T20:59:45.110Z,2.60
2018-09-12T21:02:13.492Z,2.10
2018-09-12T21:04:41.806Z,2.47
2018-09-12T21:07:10.113Z,2.17
2018-09-12T21:09:38.387Z,2.30
2018-09-12T21:12:06.869Z,2.13
2018-09-12T21:14:35.241Z,2.20
2018-09-12T21:17:03.520Z,2.17
2018-09-12T21:19:31.825Z,2.00
2018-09-12T21:22:00.403Z,2.63
2018-09-12T21:24:28.685Z,3.43
2018-09-12T21:26:56.987Z,2.10
2018-09-12T21:29:25.256Z,2.00
2018-09-12T21:31:53.545Z,2.00
2018-09-12T21:34:21.823Z,2.07
2018-09-12T21:36:50.123Z,2.00
2018-09-12T21:39:18.417Z,4.13
2018-09-12T21:41:46.701Z,2.30
2018-09-12T21:44:14.974Z,2.37
2018-09-12T21:46:43.250Z,4.67
2018-09-12T21:49:11.545Z,2.30
2018-09-12T21:51:39.827Z,2.20
2018-09-12T21:54:08.100Z,2.10
2018-09-12T21:56:36.394Z,2.20
2018-09-12T21:59:04.704Z,2.37
2018-09-12T22:01:32.984Z,2.33
2018-09-12T22:04:01.382Z,2.50
2018-09-12T22:06:29.684Z,1.97
2018-09-12T22:08:58.114Z,2.13
2018-09-12T22:11:26.359Z,2.30
2018-09-12T22:13:54.852Z,2.20
2018-09-12T22:16:23.132Z,2.40
2018-09-12T22:18:52.421Z,2.50
2018-09-12T22:21:20.745Z,2.50
2018-09-12T22:23:49.006Z,2.50
2018-09-12T22:26:17.279Z,2.60
2018-09-12T22:28:45.540Z,2.93
2018-09-12T22:31:13.784Z,4.50
2018-09-12T22:33:42.982Z,2.87
2018-09-12T22:36:11.267Z,2.93
2018-09-12T22:38:39.547Z,2.57
2018-09-12T22:41:08.361Z,2.40
2018-09-12T22:43:36.620Z,2.43
2018-09-12T22:46:04.903Z,2.50
2018-09-12T22:48:33.182Z,2.70
2018-09-12T22:51:01.579Z,3.33
2018-09-12T22:53:29.861Z,2.67
2018-09-12T22:55:58.699Z,2.77
2018-09-12T22:58:26.968Z,2.87
2018-09-12T23:00:55.223Z,3.47
2018-09-12T23:03:23.527Z,2.23
2018-09-12T23:05:52.135Z,2.97
2018-09-12T23:08:20.507Z,2.60
2018-09-12T23:10:48.771Z,3.10
2018-09-12T23:13:17.036Z,2.87
2018-09-12T23:15:45.312Z,3.43
2018-09-12T23:18:13.579Z,3.30
2018-09-12T23:20:41.851Z,3.50
2018-09-12T23:23:10.201Z,3.30
2018-09-12T23:25:38.432Z,3.00
2018-09-12T23:28:06.691Z,3.43
2018-09-12T23:30:34.963Z,3.40
2018-09-12T23:33:03.222Z,3.77
2018-09-12T23:35:31.509Z,3.40
2018-09-12T23:37:59.784Z,3.47
2018-09-12T23:40:28.080Z,3.43
2018-09-12T23:42:56.364Z,3.80
2018-09-12T23:45:24.610Z,3.80
2018-09-12T23:47:52.891Z,3.40
2018-09-12T23:50:21.160Z,3.77
2018-09-12T23:52:49.420Z,3.93
2018-09-12T23:55:17.692Z,3.73
2018-09-12T23:57:45.972Z,3.70
